Time;durP1;ratioP1;P1;durP2;ratioP2;P2;SDS_P1;SDS_P2;PMS_P1;PMS_P2;Temp;Humidity;BMP_temperature;BMP_pressure;BME280_temperature;BME280_humidity;BME280_pressure;Samples;Min_cycle;Max_cycle;Signal;HPM_P1;HPM_P2
2023/01/21 00:02:22;;;;;;;11.40;9.17;;;4.10;99.40;;;;;;933106;151;27826;-80
2023/01/21 00:04:49;;;;;;;13.40;10.27;;;4.10;99.50;;;;;;933122;151;27386;-83
2023/01/21 00:07:15;;;;;;;10.83;8.90;;;4.10;99.60;;;;;;932798;151;27925;-82
2023/01/21 00:09:42;;;;;;;11.13;9.53;;;4.10;99.70;;;;;;950771;149;27453;-82
2023/01/21 00:12:08;;;;;;;11.17;10.00;;;4.10;99.70;;;;;;945657;151;27241;-81
2023/01/21 00:14:35;;;;;;;11.80;10.43;;;4.10;99.80;;;;;;948784;148;27365;-82
2023/01/21 00:17:02;;;;;;;12.23;10.57;;;4.10;99.90;;;;;;948521;148;27450;-83
2023/01/21 00:19:28;;;;;;;11.70;9.63;;;4.20;99.90;;;;;;948392;148;27409;-83
2023/01/21 00:21:55;;;;;;;12.47;10.63;;;4.20;99.90;;;;;;932669;151;27435;-82
2023/01/21 00:24:24;;;;;;;12.83;10.27;;;4.20;99.90;;;;;;933446;151;27378;-81
2023/01/21 00:26:50;;;;;;;12.07;10.23;;;4.20;99.80;;;;;;950465;148;27358;-82
2023/01/21 00:29:17;;;;;;;13.03;11.50;;;4.20;99.80;;;;;;945597;149;27766;-82
2023/01/21 00:31:44;;;;;;;11.27;9.73;;;4.20;99.70;;;;;;945649;149;27414;-82
2023/01/21 00:34:10;;;;;;;12.33;10.20;;;4.20;99.70;;;;;;945541;149;27457;-80
2023/01/21 00:36:37;;;;;;;11.47;10.27;;;4.20;99.50;;;;;;945163;149;27462;-82
2023/01/21 00:39:03;;;;;;;11.80;10.60;;;4.20;99.40;;;;;;944814;149;27332;-82
2023/01/21 00:41:30;;;;;;;10.53;9.20;;;4.20;99.20;;;;;;944418;149;27328;-82
2023/01/21 00:43:56;;;;;;;11.63;9.97;;;4.20;99.10;;;;;;946226;149;27357;-82
2023/01/21 00:46:23;;;;;;;12.13;10.27;;;4.20;99.10;;;;;;945428;149;27400;-82
2023/01/21 00:48:50;;;;;;;11.40;10.17;;;4.10;99.20;;;;;;944791;149;27352;-81
2023/01/21 00:51:16;;;;;;;11.23;9.40;;;4.10;99.00;;;;;;945686;149;27897;-81
2023/01/21 00:53:43;;;;;;;11.73;10.03;;;4.10;99.00;;;;;;946287;149;27430;-81
2023/01/21 00:56:09;;;;;;;12.00;9.50;;;4.10;99.10;;;;;;946142;149;27409;-80
2023/01/21 00:58:36;;;;;;;10.50;9.40;;;4.00;99.10;;;;;;944737;149;27372;-81
2023/01/21 01:01:05;;;;;;;12.93;9.90;;;4.00;99.20;;;;;;945982;149;27407;-81
2023/01/21 01:03:32;;;;;;;11.23;10.03;;;4.00;99.20;;;;;;943221;149;27281;-79
2023/01/21 01:06:01;;;;;;;11.77;9.23;;;4.00;99.10;;;;;;947853;149;27354;-79
2023/01/21 01:08:28;;;;;;;12.17;9.53;;;4.00;99.00;;;;;;946646;149;27817;-79
2023/01/21 01:10:54;;;;;;;13.00;10.80;;;4.00;98.80;;;;;;948256;149;27312;-81
2023/01/21 01:13:21;;;;;;;13.17;11.07;;;4.00;98.60;;;;;;947521;149;27461;-81
2023/01/21 01:15:51;;;;;;;12.63;10.23;;;3.90;98.40;;;;;;945531;149;27336;-81
2023/01/21 01:18:14;;;;;;;11.27;9.23;;;3.90;98.30;;;;;;945100;149;27379;-81
2023/01/21 01:20:44;;;;;;;10.73;9.67;;;3.80;98.10;;;;;;944025;149;28045;-82
2023/01/21 01:23:10;;;;;;;13.53;10.07;;;3.80;98.00;;;;;;946296;149;27373;-82
2023/01/21 01:25:37;;;;;;;10.83;9.73;;;3.70;97.90;;;;;;934716;151;27491;-82
2023/01/21 01:28:03;;;;;;;13.10;9.67;;;3.60;97.80;;;;;;918326;152;27896;-79
2023/01/21 01:30:30;;;;;;;12.33;9.43;;;3.60;97.70;;;;;;911929;153;27476;-82
2023/01/21 01:32:57;;;;;;;12.00;9.33;;;3.50;97.60;;;;;;935017;149;27440;-82
2023/01/21 01:35:23;;;;;;;11.93;9.63;;;3.40;97.60;;;;;;934599;150;27309;-82
2023/01/21 01:37:50;;;;;;;11.97;9.33;;;3.40;97.60;;;;;;934671;149;27298;-80
2023/01/21 01:40:16;;;;;;;10.20;9.17;;;3.30;97.70;;;;;;934081;150;27469;-82
2023/01/21 01:42:43;;;;;;;11.70;9.07;;;3.20;97.50;;;;;;911144;153;27335;-82
2023/01/21 01:45:15;;;;;;;10.53;9.17;;;3.20;97.50;;;;;;927972;151;27295;-82
2023/01/21 01:47:56;;;;;;;10.83;8.77;;;3.10;97.50;;;;;;927374;151;27282;-81
2023/01/21 01:50:17;;;;;;;10.00;8.57;;;3.00;97.30;;;;;;926764;151;27443;-83
2023/01/21 01:52:44;;;;;;;9.67;8.67;;;3.00;97.20;;;;;;926490;151;28490;-83
2023/01/21 01:55:10;;;;;;;9.67;8.23;;;2.90;97.10;;;;;;926452;151;27260;-83
2023/01/21 01:57:37;;;;;;;9.10;8.20;;;2.80;97.10;;;;;;918538;152;27892;-82
2023/01/21 02:00:03;;;;;;;9.93;8.63;;;2.80;97.20;;;;;;912267;152;27480;-80
2023/01/21 02:02:30;;;;;;;10.33;8.03;;;2.70;97.20;;;;;;927999;151;27430;-84
2023/01/21 02:04:56;;;;;;;10.33;8.50;;;2.70;97.30;;;;;;913235;153;27379;-84
2023/01/21 02:07:23;;;;;;;10.13;8.17;;;2.60;97.30;;;;;;919154;152;27350;-83
2023/01/21 02:09:50;;;;;;;9.73;8.60;;;2.50;97.30;;;;;;927003;150;27431;-81
2023/01/21 02:12:16;;;;;;;11.27;8.63;;;2.40;97.40;;;;;;928472;150;27367;-82
2023/01/21 02:14:43;;;;;;;9.97;8.27;;;2.40;97.30;;;;;;927804;150;28426;-83
2023/01/21 02:17:21;;;;;;;10.07;8.57;;;2.30;97.40;;;;;;928201;150;27295;-83
2023/01/21 02:19:59;;;;;;;9.93;8.30;;;2.30;97.50;;;;;;928372;150;27411;-82
2023/01/21 02:22:44;;;;;;;8.83;7.63;;;2.20;97.60;;;;;;927558;150;27386;-82
2023/01/21 02:25:35;;;;;;;9.40;8.37;;;2.20;97.60;;;;;;925621;150;27367;-84
2023/01/21 02:28:23;;;;;;;8.57;7.67;;;2.10;97.60;;;;;;947067;147;27453;-84
2023/01/21 02:30:55;;;;;;;12.90;8.03;;;2.00;97.60;;;;;;953784;147;27339;-83
2023/01/21 02:33:34;;;;;;;7.93;7.13;;;2.00;97.60;;;;;;952304;148;27891;-83
2023/01/21 02:36:03;;;;;;;9.53;8.23;;;1.90;97.70;;;;;;951430;147;27456;-82
2023/01/21 02:38:29;;;;;;;9.73;8.10;;;1.90;97.70;;;;;;938875;147;27373;-83
2023/01/21 02:41:14;;;;;;;10.20;7.80;;;1.80;97.70;;;;;;941548;147;27337;-82
2023/01/21 02:43:47;;;;;;;9.13;7.40;;;1.70;97.60;;;;;;952828;147;27375;-79
2023/01/21 02:46:13;;;;;;;8.60;7.40;;;1.70;97.90;;;;;;952351;148;27496;-81
2023/01/21 02:48:40;;;;;;;11.00;7.57;;;1.60;97.60;;;;;;952541;147;27419;-81
2023/01/21 02:51:06;;;;;;;8.00;6.80;;;1.60;97.70;;;;;;951768;147;27427;-82
2023/01/21 02:53:33;;;;;;;10.80;7.80;;;1.50;97.60;;;;;;954102;147;27388;-79
2023/01/21 02:56:02;;;;;;;7.13;6.43;;;1.50;97.70;;;;;;953370;147;27449;-83
2023/01/21 02:58:29;;;;;;;9.90;7.07;;;1.40;97.80;;;;;;953406;147;27353;-82
2023/01/21 03:01:11;;;;;;;7.73;6.60;;;1.40;97.80;;;;;;952557;147;27274;-82
2023/01/21 03:03:55;;;;;;;6.47;5.87;;;1.30;97.80;;;;;;953237;147;27295;-81
2023/01/21 03:06:47;;;;;;;9.20;7.37;;;1.30;97.70;;;;;;953501;147;27518;-82
2023/01/21 03:09:18;;;;;;;8.47;7.13;;;1.20;97.70;;;;;;953560;147;27482;-82
2023/01/21 03:11:45;;;;;;;8.97;7.53;;;1.10;97.70;;;;;;952835;148;27405;-82
2023/01/21 03:16:59;;;;;;;10.67;7.20;;;1.00;98.20;;;;;;954118;147;27428;-82
2023/01/21 03:19:34;;;;;;;16.57;7.37;;;1.00;98.30;;;;;;951844;147;27274;-82
2023/01/21 03:22:01;;;;;;;9.60;7.53;;;1.00;98.50;;;;;;952490;147;27375;-82
2023/01/21 03:24:27;;;;;;;9.07;7.27;;;1.00;98.60;;;;;;951297;148;27466;-78
2023/01/21 03:26:56;;;;;;;8.00;6.97;;;1.00;98.70;;;;;;951821;147;27357;-81
2023/01/21 03:29:21;;;;;;;8.77;7.23;;;1.00;98.90;;;;;;945472;148;27323;-80
2023/01/21 03:31:47;;;;;;;11.57;8.37;;;1.00;99.20;;;;;;945308;149;27450;-81
2023/01/21 03:34:14;;;;;;;10.47;8.80;;;1.00;99.50;;;;;;945711;148;27368;-80
2023/01/21 03:36:40;;;;;;;12.70;8.87;;;1.00;99.70;;;;;;947950;148;27373;-81
2023/01/21 03:39:07;;;;;;;8.80;7.83;;;1.00;99.70;;;;;;946442;148;27357;-80
2023/01/21 03:41:35;;;;;;;11.47;9.10;;;1.10;99.60;;;;;;946391;148;27425;-80
2023/01/21 03:44:00;;;;;;;9.53;8.23;;;1.10;99.40;;;;;;947097;148;27370;-81
2023/01/21 03:46:44;;;;;;;8.87;7.30;;;1.10;99.20;;;;;;947542;148;27341;-80
2023/01/21 03:49:11;;;;;;;9.50;7.90;;;1.10;98.90;;;;;;946307;148;27389;-80
2023/01/21 03:51:37;;;;;;;10.07;8.53;;;1.10;98.60;;;;;;946844;148;27429;-81
2023/01/21 03:54:04;;;;;;;9.23;7.67;;;1.00;98.50;;;;;;947726;148;27424;-80
2023/01/21 03:56:31;;;;;;;11.67;7.93;;;1.00;98.40;;;;;;932010;151;27425;-80
2023/01/21 03:58:57;;;;;;;9.63;7.93;;;1.00;98.30;;;;;;930621;151;27379;-81
2023/01/21 04:01:24;;;;;;;9.67;8.20;;;1.00;98.30;;;;;;925208;152;27404;-81
2023/01/21 04:03:50;;;;;;;9.90;7.43;;;0.90;98.20;;;;;;947780;151;27411;-81
2023/01/21 04:06:17;;;;;;;10.03;8.67;;;0.90;98.20;;;;;;947497;148;27284;-80
2023/01/21 04:08:44;;;;;;;10.33;7.90;;;0.80;98.20;;;;;;946356;148;27360;-80
2023/01/21 04:11:10;;;;;;;9.93;8.13;;;0.80;98.20;;;;;;947036;148;27378;-81
2023/01/21 04:13:37;;;;;;;10.93;8.03;;;0.80;98.30;;;;;;947589;148;27371;-81
2023/01/21 04:16:03;;;;;;;10.23;8.20;;;0.70;98.30;;;;;;946550;148;27269;-81
2023/01/21 04:18:30;;;;;;;9.57;8.17;;;0.70;98.40;;;;;;946121;148;27288;-81
2023/01/21 04:20:56;;;;;;;10.33;7.70;;;0.60;98.40;;;;;;945663;148;27382;-79
2023/01/21 04:23:23;;;;;;;11.40;8.47;;;0.60;98.50;;;;;;947002;148;27399;-81
2023/01/21 04:25:50;;;;;;;11.47;8.00;;;0.60;98.50;;;;;;946299;148;27415;-81
2023/01/21 04:28:16;;;;;;;10.43;8.47;;;0.50;98.50;;;;;;946936;148;27406;-80
2023/01/21 04:30:43;;;;;;;10.47;8.03;;;0.50;98.50;;;;;;947641;148;27364;-80
2023/01/21 04:33:09;;;;;;;10.50;8.40;;;0.50;98.60;;;;;;947271;149;27447;-81
2023/01/21 04:35:36;;;;;;;11.23;8.73;;;0.40;98.70;;;;;;947761;148;27365;-81
2023/01/21 04:38:03;;;;;;;11.70;8.90;;;0.40;98.70;;;;;;947409;148;27346;-81
2023/01/21 04:40:29;;;;;;;11.50;9.20;;;0.40;98.80;;;;;;946108;149;27277;-81
2023/01/21 04:42:56;;;;;;;12.40;8.57;;;0.40;98.80;;;;;;946363;149;27448;-79
2023/01/21 04:45:22;;;;;;;10.47;8.23;;;0.40;98.90;;;;;;948077;148;27387;-80
2023/01/21 04:47:49;;;;;;;10.70;8.83;;;0.30;98.90;;;;;;947301;148;27307;-80
2023/01/21 04:50:16;;;;;;;11.27;8.63;;;0.30;98.90;;;;;;946411;149;27455;-80
2023/01/21 04:52:42;;;;;;;11.50;8.53;;;0.30;98.90;;;;;;946476;148;27435;-80
2023/01/21 04:55:09;;;;;;;12.87;8.97;;;0.30;98.90;;;;;;947950;148;27366;-81
2023/01/21 04:57:35;;;;;;;12.40;8.97;;;0.30;98.90;;;;;;947798;148;27443;-82
2023/01/21 05:00:04;;;;;;;11.80;9.00;;;0.20;98.90;;;;;;946953;148;27279;-81
2023/01/21 05:02:28;;;;;;;11.93;9.03;;;0.20;98.90;;;;;;946743;148;27476;-81
2023/01/21 05:04:55;;;;;;;13.43;9.30;;;0.20;99.10;;;;;;947001;148;27434;-80
2023/01/21 05:07:22;;;;;;;12.87;9.50;;;0.20;98.90;;;;;;947893;148;27422;-81
2023/01/21 05:09:48;;;;;;;11.73;9.20;;;0.20;98.90;;;;;;946698;148;27336;-81
2023/01/21 05:12:15;;;;;;;12.23;9.10;;;0.20;98.90;;;;;;947380;149;27408;-81
2023/01/21 05:14:41;;;;;;;14.20;10.03;;;0.20;98.90;;;;;;947099;149;27415;-81
2023/01/21 05:17:08;;;;;;;14.40;10.87;;;0.20;99.00;;;;;;947584;148;27440;-79
2023/01/21 05:19:35;;;;;;;13.47;10.83;;;0.20;98.90;;;;;;930973;151;27488;-81
2023/01/21 05:22:01;;;;;;;13.73;9.63;;;0.20;99.00;;;;;;948038;148;27340;-81
2023/01/21 05:24:28;;;;;;;11.40;9.17;;;0.10;99.00;;;;;;946574;149;27385;-82
2023/01/21 05:26:54;;;;;;;11.73;9.57;;;0.10;99.00;;;;;;946711;148;27295;-81
2023/01/21 05:29:21;;;;;;;11.97;9.10;;;0.10;98.90;;;;;;947056;148;27394;-79
2023/01/21 05:31:47;;;;;;;12.80;9.77;;;0.10;98.90;;;;;;946572;148;27374;-81
2023/01/21 05:34:14;;;;;;;11.47;9.03;;;0.10;98.90;;;;;;948437;149;27296;-80
2023/01/21 05:36:41;;;;;;;13.50;9.60;;;0.10;98.80;;;;;;931357;151;27802;-80
2023/01/21 05:39:07;;;;;;;12.27;9.37;;;0.10;98.70;;;;;;946313;149;27350;-79
2023/01/21 05:41:34;;;;;;;13.07;10.07;;;0.00;98.70;;;;;;947688;149;27373;-81
2023/01/21 05:44:00;;;;;;;16.77;10.27;;;0.00;98.70;;;;;;948267;149;27345;-82
2023/01/21 05:46:27;;;;;;;13.47;9.57;;;0.00;98.70;;;;;;946389;149;27301;-80
2023/01/21 05:48:54;;;;;;;13.40;9.83;;;0.00;98.70;;;;;;947511;149;27392;-80
2023/01/21 05:51:20;;;;;;;13.67;10.10;;;0.00;98.70;;;;;;947092;148;27358;-81
2023/01/21 05:53:47;;;;;;;15.37;10.23;;;0.00;98.70;;;;;;946566;148;28080;-81
2023/01/21 05:56:13;;;;;;;14.50;10.43;;;-0.10;98.70;;;;;;947689;148;27299;-81
2023/01/21 05:58:40;;;;;;;14.00;10.40;;;-0.10;98.70;;;;;;947565;149;27342;-81
2023/01/21 06:01:06;;;;;;;14.27;10.83;;;-0.10;98.70;;;;;;947160;149;27358;-79
2023/01/21 06:03:34;;;;;;;14.37;10.47;;;-0.10;98.70;;;;;;947483;149;27374;-82
2023/01/21 06:06:00;;;;;;;13.40;11.47;;;-0.20;98.70;;;;;;946974;148;27315;-82
2023/01/21 06:08:26;;;;;;;15.17;10.90;;;-0.20;98.70;;;;;;945260;148;27459;-81
2023/01/21 06:10:56;;;;;;;16.33;11.03;;;-0.20;98.70;;;;;;948185;148;27298;-80
2023/01/21 06:13:19;;;;;;;14.37;10.40;;;-0.20;98.80;;;;;;945392;149;27370;-79
2023/01/21 06:15:46;;;;;;;16.03;11.73;;;-0.20;98.80;;;;;;946943;149;27362;-81
2023/01/21 06:18:13;;;;;;;13.27;10.63;;;-0.30;98.80;;;;;;947741;148;27745;-81
2023/01/21 06:20:39;;;;;;;14.43;10.80;;;-0.30;98.90;;;;;;947966;148;27344;-81
2023/01/21 06:23:06;;;;;;;17.60;10.63;;;-0.30;98.90;;;;;;947694;149;27408;-79
2023/01/21 06:25:33;;;;;;;15.23;10.43;;;-0.30;98.90;;;;;;947273;148;27366;-81
2023/01/21 06:28:00;;;;;;;15.80;10.63;;;-0.30;98.90;;;;;;947383;148;27322;-81
2023/01/21 06:30:26;;;;;;;15.30;10.73;;;-0.30;98.80;;;;;;940265;148;27313;-81
2023/01/21 06:32:52;;;;;;;16.60;11.47;;;-0.30;98.90;;;;;;934656;149;27392;-80
2023/01/21 06:35:19;;;;;;;16.53;11.70;;;-0.30;98.80;;;;;;934042;149;27364;-79
2023/01/21 06:37:45;;;;;;;15.93;11.40;;;-0.30;98.80;;;;;;933325;149;27371;-82
2023/01/21 06:40:12;;;;;;;19.63;13.53;;;-0.40;98.80;;;;;;934509;149;27358;-82
2023/01/21 06:42:39;;;;;;;16.87;12.80;;;-0.30;98.80;;;;;;934905;149;27705;-81
2023/01/21 06:45:05;;;;;;;19.67;13.03;;;-0.40;98.80;;;;;;934810;149;27425;-81
2023/01/21 06:47:32;;;;;;;17.87;12.77;;;-0.40;98.80;;;;;;934600;149;27372;-82
2023/01/21 06:49:58;;;;;;;17.07;12.30;;;-0.40;98.80;;;;;;934860;149;27463;-80
2023/01/21 06:52:25;;;;;;;18.20;13.33;;;-0.40;98.80;;;;;;934027;149;27342;-82
2023/01/21 06:54:52;;;;;;;16.50;11.93;;;-0.40;98.90;;;;;;934590;149;27336;-81
2023/01/21 06:57:18;;;;;;;18.03;13.03;;;-0.40;98.90;;;;;;933568;149;27386;-80
2023/01/21 06:59:45;;;;;;;20.60;13.70;;;-0.40;98.80;;;;;;935028;149;27432;-82
2023/01/21 07:02:11;;;;;;;17.27;12.27;;;-0.40;99.00;;;;;;934341;149;27348;-82
2023/01/21 07:04:38;;;;;;;17.00;12.43;;;-0.40;98.90;;;;;;935052;149;27315;-81
2023/01/21 07:07:05;;;;;;;21.20;12.53;;;-0.40;98.90;;;;;;935473;149;27340;-80
2023/01/21 07:09:31;;;;;;;18.20;12.77;;;-0.40;99.00;;;;;;935626;149;27376;-82
2023/01/21 07:11:58;;;;;;;20.70;13.50;;;-0.30;99.10;;;;;;934211;149;27368;-82
2023/01/21 07:14:24;;;;;;;16.50;12.33;;;-0.40;99.20;;;;;;934787;149;27339;-82
2023/01/21 07:16:52;;;;;;;17.33;13.50;;;-0.30;99.30;;;;;;933691;149;27338;-80
2023/01/21 07:19:17;;;;;;;18.07;13.10;;;-0.30;99.40;;;;;;935285;149;27333;-80
2023/01/21 07:21:44;;;;;;;17.67;12.73;;;-0.30;99.60;;;;;;925026;151;27406;-82
2023/01/21 07:24:11;;;;;;;17.47;13.13;;;-0.30;99.60;;;;;;926422;151;27299;-81
2023/01/21 07:26:37;;;;;;;19.57;13.57;;;-0.30;99.70;;;;;;925882;151;27324;-82
2023/01/21 07:29:04;;;;;;;19.00;12.80;;;-0.20;99.80;;;;;;925124;154;27365;-82
2023/01/21 07:31:30;;;;;;;16.80;12.80;;;-0.20;99.90;;;;;;925841;151;27410;-82
2023/01/21 07:33:57;;;;;;;18.17;12.00;;;-0.20;99.90;;;;;;926214;151;28486;-80
2023/01/21 07:36:24;;;;;;;18.17;12.33;;;-0.10;99.90;;;;;;925676;151;27343;-81
2023/01/21 07:38:50;;;;;;;16.60;12.43;;;-0.10;99.90;;;;;;918683;152;27358;-80
2023/01/21 07:41:17;;;;;;;16.10;11.50;;;-0.10;99.90;;;;;;933786;150;27390;-80
2023/01/21 07:43:43;;;;;;;16.83;12.43;;;0.00;99.90;;;;;;933843;150;27364;-80
2023/01/21 07:46:10;;;;;;;16.53;11.87;;;0.00;99.90;;;;;;933343;150;27355;-81
2023/01/21 07:48:37;;;;;;;16.50;11.60;;;0.10;99.90;;;;;;932814;150;27489;-80
2023/01/21 07:51:03;;;;;;;17.43;12.37;;;0.10;99.90;;;;;;932884;150;27500;-80
2023/01/21 07:53:30;;;;;;;16.63;12.37;;;0.20;99.90;;;;;;933096;150;27353;-79
2023/01/21 07:55:56;;;;;;;17.40;12.20;;;0.20;99.90;;;;;;933640;150;27353;-81
2023/01/21 07:58:23;;;;;;;17.90;12.10;;;0.30;99.90;;;;;;933190;150;27299;-81
2023/01/21 08:00:50;;;;;;;15.20;11.23;;;0.30;99.90;;;;;;932329;150;27290;-81
2023/01/21 08:03:18;;;;;;;17.90;11.70;;;0.40;99.90;;;;;;934334;150;27409;-79
2023/01/21 08:05:43;;;;;;;14.53;11.03;;;0.40;99.90;;;;;;932938;150;27364;-80
2023/01/21 08:08:09;;;;;;;16.27;11.37;;;0.50;99.90;;;;;;934509;150;28419;-80
2023/01/21 08:10:36;;;;;;;18.80;13.03;;;0.60;99.90;;;;;;936361;145;27359;-79
2023/01/21 08:13:02;;;;;;;17.97;12.70;;;0.60;99.90;;;;;;936794;150;27346;-80
2023/01/21 08:15:29;;;;;;;15.80;11.47;;;0.70;99.90;;;;;;936566;145;27262;-79
2023/01/21 08:17:56;;;;;;;19.43;12.37;;;0.80;99.90;;;;;;934470;150;27455;-81
2023/01/21 08:20:22;;;;;;;16.20;12.07;;;0.90;99.90;;;;;;930371;150;27314;-80
2023/01/21 08:22:49;;;;;;;16.33;12.10;;;1.00;99.90;;;;;;932884;150;27359;-80
2023/01/21 08:25:15;;;;;;;15.80;12.03;;;1.10;99.90;;;;;;933139;150;27329;-79
2023/01/21 08:27:42;;;;;;;17.73;12.70;;;1.20;99.90;;;;;;933106;150;27459;-80
2023/01/21 08:30:09;;;;;;;16.87;13.07;;;1.30;99.90;;;;;;933847;150;27452;-81
2023/01/21 08:32:35;;;;;;;17.60;13.27;;;1.30;99.90;;;;;;939607;149;27364;-80
2023/01/21 08:35:02;;;;;;;18.67;12.40;;;1.40;99.90;;;;;;940620;149;27346;-80
2023/01/21 08:37:28;;;;;;;19.07;13.30;;;1.50;99.90;;;;;;939771;149;27343;-79
2023/01/21 08:39:55;;;;;;;15.83;11.97;;;1.50;99.80;;;;;;941156;150;27428;-80
2023/01/21 08:42:22;;;;;;;17.43;12.67;;;1.60;99.70;;;;;;940217;152;27461;-80
2023/01/21 08:44:50;;;;;;;17.00;12.13;;;1.60;99.70;;;;;;941423;149;27304;-80
2023/01/21 08:47:15;;;;;;;19.07;13.33;;;1.70;99.70;;;;;;939739;149;27398;-80
2023/01/21 08:49:41;;;;;;;16.67;12.17;;;1.80;99.70;;;;;;940309;149;27437;-79
2023/01/21 08:52:09;;;;;;;17.07;12.67;;;1.90;99.80;;;;;;941084;152;27323;-80
2023/01/21 08:54:35;;;;;;;14.67;11.73;;;2.00;99.90;;;;;;941069;149;27359;-80
2023/01/21 08:57:01;;;;;;;15.87;12.10;;;2.10;99.90;;;;;;940419;149;27414;-80
2023/01/21 08:59:28;;;;;;;15.47;12.83;;;2.20;99.90;;;;;;939728;149;28144;-80
2023/01/21 09:01:54;;;;;;;17.67;13.20;;;2.30;99.90;;;;;;940950;151;27440;-79
2023/01/21 09:04:22;;;;;;;17.10;12.50;;;2.40;99.80;;;;;;939305;152;27355;-80
2023/01/21 09:06:48;;;;;;;17.43;12.37;;;2.50;99.60;;;;;;939187;149;27324;-80
2023/01/21 09:09:14;;;;;;;14.07;11.73;;;2.50;99.30;;;;;;940016;151;27398;-80
2023/01/21 09:11:41;;;;;;;14.03;11.40;;;2.60;99.10;;;;;;940079;151;27284;-80
2023/01/21 09:14:07;;;;;;;14.50;11.53;;;2.70;98.90;;;;;;940425;150;27352;-80
2023/01/21 09:16:35;;;;;;;16.63;12.53;;;2.70;98.90;;;;;;940772;149;27923;-80
2023/01/21 09:19:00;;;;;;;15.07;12.57;;;2.80;98.70;;;;;;941142;151;27390;-79
2023/01/21 09:21:28;;;;;;;16.93;13.50;;;2.90;98.50;;;;;;939358;152;27396;-80
2023/01/21 09:23:54;;;;;;;16.90;12.63;;;2.90;98.20;;;;;;940739;149;27460;-79
2023/01/21 09:26:20;;;;;;;17.93;12.00;;;2.90;97.80;;;;;;937528;149;27368;-80
2023/01/21 09:28:47;;;;;;;16.03;11.50;;;2.90;97.50;;;;;;937065;149;27381;-80
2023/01/21 09:31:17;;;;;;;14.93;12.03;;;2.90;97.30;;;;;;937756;149;27482;-80
2023/01/21 09:33:43;;;;;;;16.77;12.00;;;2.90;97.20;;;;;;937084;149;27458;-80
2023/01/21 09:36:12;;;;;;;16.50;12.60;;;2.90;97.00;;;;;;936585;150;27413;-79
2023/01/21 09:38:39;;;;;;;17.53;12.50;;;2.90;96.90;;;;;;943403;149;27340;-80
2023/01/21 09:41:14;;;;;;;17.10;14.00;;;2.90;97.00;;;;;;944539;149;27383;-80
2023/01/21 09:43:41;;;;;;;14.97;11.40;;;2.90;97.20;;;;;;944170;149;27304;-79
2023/01/21 09:46:08;;;;;;;15.37;11.60;;;2.90;97.40;;;;;;942956;149;27372;-80
2023/01/21 09:48:37;;;;;;;16.97;12.17;;;3.00;97.50;;;;;;942555;149;28023;-80
2023/01/21 09:51:04;;;;;;;18.37;11.50;;;3.00;97.40;;;;;;943048;149;27351;-80
2023/01/21 09:53:49;;;;;;;15.90;11.57;;;3.00;97.30;;;;;;943200;149;27416;-80
2023/01/21 09:56:15;;;;;;;12.90;11.10;;;3.00;97.20;;;;;;943156;149;27408;-82
2023/01/21 09:58:42;;;;;;;14.00;11.30;;;3.10;97.20;;;;;;941531;149;27364;-83
2023/01/21 10:01:11;;;;;;;16.47;12.23;;;3.10;97.10;;;;;;942540;149;28503;-83
2023/01/21 10:03:44;;;;;;;17.10;11.63;;;3.10;96.90;;;;;;943306;149;27261;-83
2023/01/21 10:06:13;;;;;;;14.10;11.10;;;3.10;97.00;;;;;;953760;147;27337;-80
2023/01/21 10:08:48;;;;;;;17.87;12.50;;;3.10;96.40;;;;;;936693;151;28904;-81
2023/01/21 10:11:46;;;;;;;13.23;11.80;;;3.10;96.40;;;;;;936840;150;27448;-81
2023/01/21 10:14:27;;;;;;;15.63;10.63;;;3.10;96.20;;;;;;936982;150;27367;-80
2023/01/21 10:17:12;;;;;;;13.53;9.93;;;3.10;96.20;;;;;;936638;150;27328;-83
2023/01/21 10:19:39;;;;;;;14.30;11.20;;;3.10;96.20;;;;;;950226;148;27339;-82
2023/01/21 10:22:06;;;;;;;13.60;11.00;;;3.10;96.30;;;;;;940554;147;27388;-82
2023/01/21 10:24:35;;;;;;;15.27;11.17;;;3.10;96.30;;;;;;952308;147;27442;-83
2023/01/21 10:27:01;;;;;;;16.13;10.73;;;3.00;96.30;;;;;;938234;150;27426;-82
2023/01/21 10:29:28;;;;;;;15.17;12.20;;;3.10;96.40;;;;;;938121;150;27311;-82
2023/01/21 10:32:04;;;;;;;14.77;11.70;;;3.10;96.40;;;;;;953611;147;27447;-81
2023/01/21 10:34:30;;;;;;;14.07;10.77;;;3.10;96.40;;;;;;953744;147;27923;-82
2023/01/21 10:36:57;;;;;;;16.50;11.43;;;3.10;96.40;;;;;;953651;147;27401;-82
2023/01/21 10:39:57;;;;;;;13.97;10.73;;;3.10;96.30;;;;;;951850;147;27340;-82
2023/01/21 10:42:41;;;;;;;14.77;9.93;;;3.10;96.30;;;;;;952296;147;27337;-80
2023/01/21 10:45:30;;;;;;;13.63;10.33;;;3.10;96.20;;;;;;952771;147;27321;-80
2023/01/21 10:48:15;;;;;;;16.10;10.00;;;3.10;96.20;;;;;;952537;147;27422;-80
2023/01/21 10:50:47;;;;;;;17.40;11.63;;;3.10;96.20;;;;;;953295;147;27963;-80
2023/01/21 10:53:21;;;;;;;13.30;10.30;;;3.10;96.10;;;;;;953148;147;27565;-81
2023/01/21 10:55:50;;;;;;;12.33;10.30;;;3.10;96.30;;;;;;952035;147;27412;-81
2023/01/21 10:58:24;;;;;;;14.23;10.77;;;3.10;96.40;;;;;;953200;147;27447;-80
2023/01/21 11:00:48;;;;;;;13.80;11.10;;;3.20;96.40;;;;;;953428;147;27347;-81
2023/01/21 11:03:17;;;;;;;14.07;10.43;;;3.20;96.50;;;;;;939036;150;28814;-80
2023/01/21 11:05:44;;;;;;;13.07;9.67;;;3.20;96.50;;;;;;936921;150;27466;-80
2023/01/21 11:08:10;;;;;;;14.87;10.60;;;3.30;96.60;;;;;;953666;147;27330;-80
2023/01/21 11:10:37;;;;;;;13.67;10.20;;;3.30;96.60;;;;;;952815;147;27385;-81
2023/01/21 11:13:04;;;;;;;12.67;9.70;;;3.30;96.40;;;;;;953430;147;27368;-80
2023/01/21 11:15:30;;;;;;;13.00;10.43;;;3.40;96.40;;;;;;952359;147;27329;-80
2023/01/21 11:17:58;;;;;;;12.97;10.70;;;3.40;96.40;;;;;;951625;147;27415;-80
2023/01/21 11:20:32;;;;;;;11.03;9.00;;;3.40;96.40;;;;;;952709;147;27270;-80
2023/01/21 11:22:58;;;;;;;11.20;8.63;;;3.50;96.40;;;;;;952566;147;27419;-80
2023/01/21 11:25:31;;;;;;;12.53;10.40;;;3.50;96.30;;;;;;952584;147;27278;-81
2023/01/21 11:27:58;;;;;;;13.20;9.43;;;3.60;96.20;;;;;;952348;147;27434;-81
2023/01/21 11:30:30;;;;;;;14.90;9.60;;;3.60;96.10;;;;;;953190;147;27946;-80
2023/01/21 11:33:20;;;;;;;11.17;9.13;;;3.60;96.00;;;;;;949183;148;27481;-81
2023/01/21 11:35:47;;;;;;;12.17;9.07;;;3.70;96.00;;;;;;939670;149;27428;-81
2023/01/21 11:38:25;;;;;;;8.60;7.40;;;3.70;95.90;;;;;;929924;151;27375;-80
2023/01/21 11:41:14;;;;;;;10.80;7.90;;;3.80;95.90;;;;;;937645;150;27450;-80
2023/01/21 11:43:46;;;;;;;12.93;8.47;;;3.80;95.70;;;;;;937289;150;27372;-80
2023/01/21 11:46:18;;;;;;;9.20;6.87;;;3.80;95.50;;;;;;936386;150;27755;-81
2023/01/21 11:48:45;;;;;;;11.03;7.43;;;3.80;95.30;;;;;;933463;150;27428;-81
2023/01/21 11:51:11;;;;;;;10.37;7.20;;;3.90;95.20;;;;;;936324;150;27406;-82
2023/01/21 11:53:39;;;;;;;9.47;7.50;;;3.90;94.70;;;;;;937892;150;27443;-82
2023/01/21 11:56:05;;;;;;;13.00;8.80;;;3.90;94.70;;;;;;937998;150;27430;-83
2023/01/21 11:58:31;;;;;;;8.50;7.10;;;3.90;94.70;;;;;;937791;150;27327;-82
2023/01/21 12:00:58;;;;;;;9.27;7.10;;;3.90;94.80;;;;;;936899;150;27808;-82
2023/01/21 12:03:27;;;;;;;9.63;6.83;;;4.00;94.50;;;;;;936666;150;27309;-82
2023/01/21 12:05:54;;;;;;;10.13;7.20;;;4.00;94.70;;;;;;923333;150;27463;-82
2023/01/21 12:08:23;;;;;;;10.37;7.27;;;4.00;94.70;;;;;;937875;150;27352;-82
2023/01/21 12:10:49;;;;;;;10.33;7.57;;;4.10;94.80;;;;;;937767;150;27413;-81
2023/01/21 12:13:34;;;;;;;9.20;7.30;;;4.10;94.80;;;;;;938299;150;27458;-81
2023/01/21 12:16:15;;;;;;;10.07;7.17;;;4.10;94.60;;;;;;936790;150;27473;-82
2023/01/21 12:18:45;;;;;;;8.67;7.00;;;4.20;94.70;;;;;;936576;150;27379;-82
2023/01/21 12:21:17;;;;;;;8.53;6.90;;;4.20;94.50;;;;;;934950;150;27417;-82
2023/01/21 12:24:02;;;;;;;10.17;7.07;;;4.20;94.00;;;;;;936691;150;27441;-82
2023/01/21 12:26:31;;;;;;;8.50;7.30;;;4.30;93.10;;;;;;900567;150;27807;-81
2023/01/21 12:29:22;;;;;;;8.13;6.57;;;4.30;93.40;;;;;;938076;150;27429;-80
2023/01/21 12:31:52;;;;;;;8.27;6.70;;;4.30;93.60;;;;;;934480;150;27349;-81
2023/01/21 12:34:24;;;;;;;9.83;6.83;;;4.30;93.70;;;;;;930950;150;27396;-81
2023/01/21 12:36:51;;;;;;;9.17;6.60;;;4.40;93.50;;;;;;928263;148;27392;-81
2023/01/21 12:39:17;;;;;;;10.03;7.00;;;4.40;93.50;;;;;;929254;151;27465;-81
2023/01/21 12:41:44;;;;;;;9.20;6.70;;;4.40;93.40;;;;;;929645;151;27369;-81
2023/01/21 12:44:13;;;;;;;7.93;6.60;;;4.50;93.40;;;;;;929041;151;27321;-80
2023/01/21 12:46:40;;;;;;;8.13;6.37;;;4.50;92.40;;;;;;930893;151;27438;-81
2023/01/21 12:49:31;;;;;;;10.77;7.20;;;4.50;92.20;;;;;;929755;151;27341;-81
2023/01/21 12:52:00;;;;;;;6.50;5.87;;;4.50;91.90;;;;;;929389;151;27402;-81
2023/01/21 12:54:35;;;;;;;7.90;6.60;;;4.50;92.10;;;;;;930059;153;27361;-81